Lake City, TN

11:39 PM EST on February 12, 2016 (GMT -0500)
Norris Farms | | Change Station
CLOSE
Current Station
Personal Weather Station
Location: Norris, TN
Elevation: 1073 ft
Nearby Weather Stations

Elev 1073 ft 36.20 °N, 84.06 °W | Updated 3 seconds ago

Overcast
Overcast
30.7 °F
Feels Like 31 °F
N
1.0
Wind Variable Wind from NNW
Gusts 5.0 mph

Today
High -- | Low -- °F
--% Chance of Precip.
Yesterday
High -- | Low -- °F
Precip. -- in
Pressure 30.33 in
Visibility 10.0 miles
Clouds Overcast 3300 ft
Windchill 31 °F
Dew Point 22 °F
Humidity 70%
Rainfall 0.06 in
Snow Depth Not available.
7:27 AM 6:14 PM
Waxing Crescent, 27% visible
METAR KOQT 130353Z AUTO 28007G16KT 10SM OVC033 01/M07 A3028 RMK AO2 SLP269 T00061067
Pressure 30.33 in
Visibility 10.0 miles
Clouds Overcast 3300 ft
Windchill 31 °F
Dew Point 22 °F
Humidity 70%
Rainfall 0.06 in
Snow Depth Not available.
7:27 AM 6:14 PM
Waxing Crescent, 27% visible
METAR KOQT 130353Z AUTO 28007G16KT 10SM OVC033 01/M07 A3028 RMK AO2 SLP269 T00061067

10-Day Weather Forecast

Almanac

Astronomy

Feb. 12, 2016 Rise Set
Actual Time
Civil Twilight
Nautical Twilight
Astronomical Twilight
Moon
Length of Visible Light
Length of Day
Tomorrow will be .
, % of the Moon is Illuminated

Today's Extremes

State Highs State Lows

Community

WunderPhotos

Upload Photos

1,892,501 photos uploaded!

WunderBlog® & News

Nearby

Air Quality

  Air Quality AQ Index Pollutant
Not available.

Snow Depth

Station Depth Elevation

Earthquake Activity

City Distance Mag. Time & Date
Minimum magnitude displayed is 2.5.

Coastal Water Temperatures

Place Temperature

Stations

Nearby Weather Stations

Station Location Temp. Windchill Dew Point Humidity Wind Precip. Elev Updated Type
                   

Watches & Warnings

There are currently no watches in effect.